createdAt,value
2023-04-23T00:01:19.076Z,11.70
2023-04-23T00:03:48.546Z,11.60
2023-04-23T00:06:17.630Z,11.60
2023-04-23T00:08:44.749Z,11.70
2023-04-23T00:11:11.739Z,11.80
2023-04-23T00:13:39.054Z,11.90
2023-04-23T00:16:06.439Z,11.90
2023-04-23T00:18:33.275Z,11.90
2023-04-23T00:21:00.267Z,11.90
2023-04-23T00:23:28.726Z,11.80
2023-04-23T00:25:55.479Z,11.80
2023-04-23T00:28:22.433Z,11.80
2023-04-23T00:30:49.386Z,11.70
2023-04-23T00:33:16.373Z,11.60
2023-04-23T00:35:43.159Z,11.50
2023-04-23T00:38:10.004Z,11.50
2023-04-23T00:40:36.887Z,11.40
2023-04-23T00:43:04.766Z,11.20
2023-04-23T00:45:31.608Z,11.30
2023-04-23T00:47:59.067Z,11.30
2023-04-23T00:50:26.440Z,11.30
2023-04-23T00:52:53.378Z,11.30
2023-04-23T00:55:21.347Z,11.30
2023-04-23T00:57:48.969Z,11.20
2023-04-23T01:00:16.091Z,11.20
2023-04-23T01:02:44.434Z,11.30
2023-04-23T01:05:14.285Z,11.20
2023-04-23T01:07:43.418Z,11.20
2023-04-23T01:10:12.031Z,11.20
2023-04-23T01:12:38.987Z,11.10
2023-04-23T01:15:07.732Z,11.10
2023-04-23T01:17:34.618Z,11.20
2023-04-23T01:20:01.447Z,11.20
2023-04-23T01:22:28.312Z,11.20
2023-04-23T01:24:55.260Z,11.20
2023-04-23T01:27:24.839Z,11.20
2023-04-23T01:29:52.254Z,11.20
2023-04-23T01:32:19.956Z,11.20
2023-04-23T01:34:48.168Z,11.20
2023-04-23T01:37:16.779Z,11.10
2023-04-23T01:39:43.598Z,11.10
2023-04-23T01:42:11.591Z,10.90
2023-04-23T01:44:38.525Z,10.80
2023-04-23T01:47:07.123Z,10.70
2023-04-23T01:49:34.192Z,10.80
2023-04-23T01:52:00.991Z,10.80
2023-04-23T01:54:27.820Z,10.80
2023-04-23T01:56:55.767Z,10.70
2023-04-23T01:59:22.924Z,10.80
2023-04-23T02:01:50.416Z,10.80
2023-04-23T02:04:18.004Z,10.60
2023-04-23T02:06:47.678Z,10.60
2023-04-23T02:09:15.269Z,10.80
2023-04-23T02:11:42.257Z,10.90
2023-04-23T02:14:10.219Z,10.80
2023-04-23T02:16:37.329Z,10.90
2023-04-23T02:19:04.355Z,10.80
2023-04-23T02:21:32.437Z,10.90
2023-04-23T02:23:59.257Z,10.90
2023-04-23T02:26:26.192Z,10.90
2023-04-23T02:28:52.906Z,10.90
2023-04-23T02:31:20.848Z,10.90
2023-04-23T02:33:48.094Z,10.80
2023-04-23T02:36:16.020Z,10.80
2023-04-23T02:38:44.771Z,10.90
2023-04-23T02:41:12.293Z,10.80
2023-04-23T02:43:39.201Z,10.90
2023-04-23T02:46:09.550Z,10.90
2023-04-23T02:48:41.301Z,10.90
2023-04-23T02:51:13.298Z,10.90
2023-04-23T02:53:40.406Z,10.90
2023-04-23T02:56:08.207Z,10.90
2023-04-23T02:58:35.329Z,11.00
2023-04-23T03:01:02.517Z,10.90
2023-04-23T03:03:31.999Z,11.00
2023-04-23T03:06:01.039Z,10.90
2023-04-23T03:08:28.533Z,10.80
2023-04-23T03:10:55.437Z,10.60
2023-04-23T03:13:22.168Z,10.70
2023-04-23T03:15:49.144Z,10.80
2023-04-23T03:18:16.007Z,10.80
2023-04-23T03:20:43.667Z,10.90
2023-04-23T03:23:10.539Z,10.80
2023-04-23T03:25:37.566Z,10.80
2023-04-23T03:28:04.332Z,10.80
2023-04-23T03:30:31.451Z,10.70
2023-04-23T03:32:59.881Z,10.80
2023-04-23T03:35:27.252Z,10.70
2023-04-23T03:37:55.170Z,10.70
2023-04-23T03:40:22.537Z,10.60
2023-04-23T03:42:49.417Z,10.50
2023-04-23T03:45:16.904Z,10.50
2023-04-23T03:47:44.197Z,10.40
2023-04-23T03:50:13.161Z,10.60
2023-04-23T03:52:40.379Z,10.60
2023-04-23T03:55:08.023Z,10.60
2023-04-23T03:57:36.026Z,10.70
2023-04-23T04:00:04.700Z,10.70
2023-04-23T04:02:32.210Z,10.70
2023-04-23T04:04:59.295Z,10.80
2023-04-23T04:07:26.963Z,10.70
2023-04-23T04:09:53.667Z,10.80
2023-04-23T04:12:20.795Z,10.90
2023-04-23T04:14:47.685Z,11.00
2023-04-23T04:17:15.976Z,11.00
2023-04-23T04:19:43.169Z,11.10
2023-04-23T04:22:10.114Z,11.20
2023-04-23T04:24:37.804Z,11.30
2023-04-23T04:27:05.896Z,11.40
2023-04-23T04:29:33.365Z,11.50
2023-04-23T04:32:01.281Z,11.50
2023-04-23T04:34:28.277Z,11.50
2023-04-23T04:36:55.091Z,11.50
2023-04-23T04:39:21.873Z,11.60
2023-04-23T04:41:48.720Z,11.50
2023-04-23T04:44:16.576Z,11.60
2023-04-23T04:46:43.621Z,11.60
2023-04-23T04:49:11.704Z,11.60
2023-04-23T04:51:40.371Z,11.70
2023-04-23T04:54:07.610Z,11.70
2023-04-23T04:56:35.185Z,11.70
2023-04-23T04:59:02.351Z,11.80
2023-04-23T05:01:29.826Z,11.80
2023-04-23T05:03:57.634Z,11.90
2023-04-23T05:06:24.542Z,12.10
2023-04-23T05:08:51.434Z,12.00
2023-04-23T05:11:19.942Z,12.00
2023-04-23T05:13:49.790Z,12.00
2023-04-23T05:16:16.543Z,12.10
2023-04-23T05:18:43.333Z,12.20
2023-04-23T05:21:10.285Z,12.40
2023-04-23T05:23:37.151Z,12.50
2023-04-23T05:26:04.129Z,12.70
2023-04-23T05:28:31.740Z,12.80
2023-04-23T05:30:58.737Z,12.80
2023-04-23T05:33:33.577Z,12.90
2023-04-23T05:36:06.349Z,13.00
2023-04-23T05:38:33.233Z,13.00
2023-04-23T05:41:00.080Z,13.00
2023-04-23T05:43:26.788Z,13.00
2023-04-23T05:45:53.573Z,13.10
2023-04-23T05:48:20.473Z,13.00
2023-04-23T05:50:49.290Z,13.10
2023-04-23T05:53:16.037Z,13.10
2023-04-23T05:55:42.730Z,13.10
2023-04-23T05:58:09.512Z,13.10
2023-04-23T06:00:37.436Z,13.20
2023-04-23T06:03:04.289Z,13.20
2023-04-23T06:05:31.261Z,13.30
2023-04-23T06:07:58.038Z,13.20
2023-04-23T06:10:25.005Z,13.30
2023-04-23T06:12:53.980Z,13.30
2023-04-23T06:15:21.003Z,13.30
2023-04-23T06:17:47.827Z,13.30
2023-04-23T06:20:14.756Z,13.40
2023-04-23T06:22:41.538Z,13.50
2023-04-23T06:25:08.783Z,13.60
2023-04-23T06:27:35.600Z,13.60
2023-04-23T06:30:02.411Z,13.50
2023-04-23T06:32:29.677Z,13.50
2023-04-23T06:35:01.630Z,13.40
2023-04-23T06:37:31.656Z,13.50
2023-04-23T06:39:59.441Z,13.40
2023-04-23T06:42:26.230Z,13.40
2023-04-23T06:44:54.244Z,13.30
2023-04-23T06:47:21.003Z,13.30
2023-04-23T06:49:47.719Z,13.30
2023-04-23T06:52:14.428Z,13.30
2023-04-23T06:54:41.732Z,13.20
2023-04-23T06:57:08.613Z,13.20
2023-04-23T06:59:35.331Z,13.10
2023-04-23T07:02:02.443Z,13.20
2023-04-23T07:04:29.333Z,13.20
2023-04-23T07:06:56.098Z,13.30
2023-04-23T07:09:23.246Z,13.30
2023-04-23T07:11:50.990Z,13.40
2023-04-23T07:14:17.788Z,13.40
2023-04-23T07:16:44.658Z,13.40
2023-04-23T07:19:11.970Z,13.30
2023-04-23T07:21:39.074Z,13.30
2023-04-23T07:24:08.810Z,13.40
2023-04-23T07:26:36.770Z,13.30
2023-04-23T07:29:05.159Z,13.30
2023-04-23T07:31:31.933Z,13.30
2023-04-23T07:33:58.736Z,13.30
2023-04-23T07:36:25.872Z,13.30
2023-04-23T07:38:52.656Z,13.20
2023-04-23T07:41:19.418Z,13.10
2023-04-23T07:43:46.774Z,13.10
2023-04-23T07:46:13.588Z,13.10
2023-04-23T07:48:40.806Z,13.20
2023-04-23T07:51:08.680Z,13.10
2023-04-23T07:53:35.614Z,13.20
2023-04-23T07:56:02.577Z,13.10
2023-04-23T07:58:29.431Z,13.10
2023-04-23T08:00:56.329Z,13.10
2023-04-23T08:03:26.274Z,13.10
2023-04-23T08:05:53.577Z,13.10
2023-04-23T08:08:20.463Z,13.10
2023-04-23T08:10:47.291Z,13.00
2023-04-23T08:13:14.344Z,13.10
2023-04-23T08:15:41.084Z,13.10
2023-04-23T08:18:08.464Z,13.00
2023-04-23T08:20:35.415Z,12.90
2023-04-23T08:23:02.375Z,12.90
2023-04-23T08:25:29.510Z,12.80
2023-04-23T08:27:56.451Z,12.80
2023-04-23T08:30:33.118Z,12.80
2023-04-23T08:33:00.895Z,12.70
2023-04-23T08:35:27.624Z,12.80
2023-04-23T08:37:54.330Z,12.80
2023-04-23T08:40:21.347Z,12.80
2023-04-23T08:42:56.916Z,12.80
2023-04-23T08:45:24.277Z,12.80
2023-04-23T08:47:51.172Z,12.70
2023-04-23T08:50:19.722Z,12.80
2023-04-23T08:52:57.627Z,12.80
2023-04-23T08:55:25.406Z,12.80
2023-04-23T08:57:52.460Z,12.80
2023-04-23T09:00:20.777Z,12.80
2023-04-23T09:02:49.232Z,12.80
2023-04-23T09:05:17.653Z,12.80
2023-04-23T09:07:45.260Z,12.70
2023-04-23T09:10:16.070Z,12.80
2023-04-23T09:12:45.520Z,12.80
2023-04-23T09:15:13.697Z,12.90
2023-04-23T09:17:44.034Z,13.00
2023-04-23T09:20:12.694Z,13.10
2023-04-23T09:22:47.317Z,13.10
2023-04-23T09:25:19.592Z,13.00
2023-04-23T09:27:47.891Z,13.10
2023-04-23T09:30:15.076Z,13.10
2023-04-23T09:32:43.633Z,13.10
2023-04-23T09:35:16.172Z,13.10
2023-04-23T09:37:48.936Z,13.00
2023-04-23T09:40:19.736Z,13.20
2023-04-23T09:42:53.080Z,13.20
2023-04-23T09:45:20.699Z,13.30
2023-04-23T09:47:52.458Z,13.30
2023-04-23T09:50:21.136Z,13.30
2023-04-23T09:52:55.198Z,13.20
2023-04-23T09:55:48.361Z,13.10
2023-04-23T09:58:16.030Z,13.20
2023-04-23T10:00:43.636Z,13.40
2023-04-23T10:03:11.915Z,13.50
2023-04-23T10:08:13.232Z,13.70
2023-04-23T10:10:56.803Z,13.70
2023-04-23T10:13:28.091Z,13.80
2023-04-23T10:15:57.793Z,13.90
2023-04-23T10:18:28.260Z,14.00
2023-04-23T10:20:55.527Z,14.00
2023-04-23T10:23:45.261Z,14.00
2023-04-23T10:26:16.667Z,14.00
2023-04-23T10:28:48.338Z,13.90
2023-04-23T10:31:16.604Z,13.80
2023-04-23T10:33:55.901Z,13.80
2023-04-23T10:36:25.889Z,13.80
2023-04-23T10:38:58.843Z,13.70
2023-04-23T10:41:34.140Z,13.70
2023-04-23T10:44:00.976Z,13.70
2023-04-23T10:46:30.549Z,13.70
2023-04-23T10:49:14.766Z,13.60
2023-04-23T10:54:16.068Z,13.60
2023-04-23T10:56:43.926Z,13.50
2023-04-23T10:59:21.767Z,13.30
2023-04-23T11:01:50.496Z,13.30
2023-04-23T11:04:29.470Z,13.30
2023-04-23T11:07:08.098Z,13.40
2023-04-23T11:09:42.627Z,13.30
2023-04-23T11:12:26.819Z,13.30
2023-04-23T11:14:57.414Z,13.40
2023-04-23T11:17:44.200Z,13.50
2023-04-23T11:20:18.917Z,13.40
2023-04-23T11:22:47.560Z,13.50
2023-04-23T11:25:28.158Z,13.80
2023-04-23T11:27:56.688Z,13.90
2023-04-23T11:30:26.065Z,13.90
2023-04-23T11:32:54.763Z,13.90
2023-04-23T11:35:24.341Z,13.90
2023-04-23T11:37:51.672Z,13.90
2023-04-23T11:40:19.160Z,13.90
2023-04-23T11:42:48.878Z,14.10
2023-04-23T11:45:22.865Z,14.40
2023-04-23T11:47:53.388Z,14.70
2023-04-23T11:50:21.902Z,15.10
2023-04-23T11:52:48.808Z,15.60
2023-04-23T11:55:16.649Z,15.90
2023-04-23T11:57:47.820Z,16.20
2023-04-23T12:00:26.429Z,16.40
2023-04-23T12:02:55.388Z,16.30
2023-04-23T12:05:27.259Z,16.50
2023-04-23T12:07:54.688Z,16.30
2023-04-23T12:10:22.640Z,16.10
2023-04-23T12:12:54.246Z,16.00
2023-04-23T12:15:21.252Z,16.30
2023-04-23T12:18:08.046Z,16.70
2023-04-23T12:20:37.677Z,17.50
2023-04-23T12:23:06.468Z,18.50
2023-04-23T12:25:33.755Z,18.80
2023-04-23T12:28:01.032Z,18.60
2023-04-23T12:30:32.945Z,18.70
2023-04-23T12:33:01.085Z,18.00
2023-04-23T12:35:58.134Z,18.20
2023-04-23T12:38:27.702Z,19.30
2023-04-23T12:40:56.116Z,20.50
2023-04-23T12:43:24.616Z,21.40
2023-04-23T12:45:52.184Z,21.90
2023-04-23T12:48:19.141Z,21.90
2023-04-23T12:50:46.726Z,20.80
2023-04-23T12:53:13.815Z,20.40
2023-04-23T12:55:43.003Z,20.00
2023-04-23T12:58:09.788Z,20.80
2023-04-23T13:00:36.556Z,21.60
2023-04-23T13:03:03.734Z,20.90
2023-04-23T13:05:30.768Z,21.40
2023-04-23T13:07:57.707Z,21.80
2023-04-23T13:10:24.796Z,21.90
2023-04-23T13:12:51.511Z,22.30
2023-04-23T13:15:20.068Z,22.70
2023-04-23T13:17:47.190Z,22.50
2023-04-23T13:20:13.970Z,22.40
2023-04-23T13:22:41.083Z,21.50
2023-04-23T13:25:08.662Z,21.00
2023-04-23T13:27:35.780Z,20.50
2023-04-23T13:30:02.522Z,20.50
2023-04-23T13:32:32.325Z,20.60
2023-04-23T13:35:04.835Z,20.70
2023-04-23T13:37:31.948Z,20.90
2023-04-23T13:39:58.838Z,20.10
2023-04-23T13:42:25.559Z,19.60
2023-04-23T13:44:52.543Z,19.70
2023-04-23T13:47:20.067Z,20.20
2023-04-23T13:49:46.826Z,21.30
2023-04-23T13:52:13.529Z,22.80
2023-04-23T13:54:40.635Z,22.90
2023-04-23T13:57:07.477Z,23.30
2023-04-23T13:59:34.317Z,22.80
2023-04-23T14:02:01.121Z,23.10
2023-04-23T14:04:28.003Z,23.00
2023-04-23T14:06:54.946Z,23.90
2023-04-23T14:09:22.450Z,24.10
2023-04-23T14:11:49.646Z,24.10
2023-04-23T14:14:17.966Z,24.30
2023-04-23T14:16:44.920Z,24.30
2023-04-23T14:19:11.670Z,24.60
2023-04-23T14:21:38.637Z,25.40
2023-04-23T14:24:16.658Z,25.70
2023-04-23T14:26:49.195Z,24.90
2023-04-23T14:29:30.507Z,24.50
2023-04-23T14:31:57.247Z,23.60
2023-04-23T14:34:24.124Z,23.80
2023-04-23T14:36:53.130Z,24.00
2023-04-23T14:39:22.033Z,23.90
2023-04-23T14:41:48.859Z,24.80
2023-04-23T14:44:16.014Z,23.90
2023-04-23T14:46:43.401Z,24.70
2023-04-23T14:49:11.505Z,25.40
2023-04-23T14:51:39.089Z,26.00
2023-04-23T14:54:06.440Z,25.80
2023-04-23T14:56:33.225Z,25.30
2023-04-23T14:58:59.967Z,24.90
2023-04-23T15:01:27.228Z,24.30
2023-04-23T15:03:54.397Z,24.90
2023-04-23T15:06:21.964Z,25.40
2023-04-23T15:08:48.896Z,26.10
2023-04-23T15:11:15.817Z,26.60
2023-04-23T15:13:50.117Z,25.80
2023-04-23T15:16:46.808Z,25.80
2023-04-23T15:19:17.779Z,26.20
2023-04-23T15:21:46.349Z,25.50
2023-04-23T15:24:14.214Z,26.30
2023-04-23T15:26:41.194Z,25.50
2023-04-23T15:29:09.770Z,26.30
2023-04-23T15:31:37.902Z,27.10
2023-04-23T15:34:07.246Z,27.30
2023-04-23T15:36:35.511Z,27.30
2023-04-23T15:39:02.273Z,26.50
2023-04-23T15:41:29.323Z,26.50
2023-04-23T15:43:57.478Z,27.10
2023-04-23T15:46:24.787Z,26.80
2023-04-23T15:48:51.732Z,26.60
2023-04-23T15:51:18.833Z,26.80
2023-04-23T15:53:46.036Z,27.10
2023-04-23T15:56:13.061Z,27.20
2023-04-23T15:58:40.396Z,26.60
2023-04-23T16:01:07.555Z,25.30
2023-04-23T16:03:34.747Z,24.90
2023-04-23T16:06:02.253Z,26.10
2023-04-23T16:08:29.204Z,26.30
2023-04-23T16:10:58.028Z,27.00
2023-04-23T16:13:27.374Z,27.30
2023-04-23T16:15:54.217Z,26.60
2023-04-23T16:18:21.928Z,26.80
2023-04-23T16:20:48.690Z,26.30
2023-04-23T16:23:16.296Z,25.20
2023-04-23T16:25:43.979Z,24.50
2023-04-23T16:28:13.153Z,24.20
2023-04-23T16:30:40.653Z,24.50
2023-04-23T16:33:09.326Z,24.80
2023-04-23T16:35:36.625Z,25.50
2023-04-23T16:38:04.091Z,25.60
2023-04-23T16:40:31.202Z,25.60
2023-04-23T16:42:57.934Z,25.30
2023-04-23T16:45:25.558Z,25.20
2023-04-23T16:47:52.402Z,24.40
2023-04-23T16:50:19.315Z,23.60
2023-04-23T16:52:46.862Z,23.30
2023-04-23T16:55:14.101Z,22.80
2023-04-23T16:57:41.067Z,22.60
2023-04-23T17:00:09.805Z,22.40
2023-04-23T17:02:38.201Z,22.10
2023-04-23T17:05:06.264Z,21.80
2023-04-23T17:07:33.355Z,21.30
2023-04-23T17:10:00.757Z,20.80
2023-04-23T17:12:27.946Z,20.30
2023-04-23T17:14:54.669Z,20.00
2023-04-23T17:17:23.027Z,19.80
2023-04-23T17:19:49.942Z,19.60
2023-04-23T17:22:17.257Z,19.30
2023-04-23T17:24:44.887Z,18.80
2023-04-23T17:27:13.089Z,18.30
2023-04-23T17:29:39.860Z,17.90
2023-04-23T17:32:06.707Z,17.80
2023-04-23T17:34:36.755Z,17.80
2023-04-23T17:37:05.193Z,17.50
2023-04-23T17:39:32.621Z,17.40
2023-04-23T17:41:59.454Z,17.30
2023-04-23T17:44:27.616Z,17.00
2023-04-23T17:46:55.139Z,16.70
2023-04-23T17:49:22.802Z,16.50
2023-04-23T17:51:50.062Z,16.30
2023-04-23T17:54:17.692Z,16.00
2023-04-23T17:56:45.301Z,15.90
2023-04-23T17:59:12.191Z,15.60
2023-04-23T18:01:39.314Z,15.30
2023-04-23T18:04:06.698Z,15.00
2023-04-23T18:06:35.593Z,14.90
2023-04-23T18:09:02.746Z,14.90
2023-04-23T18:11:29.547Z,14.90
2023-04-23T18:13:56.753Z,14.80
2023-04-23T18:16:23.634Z,14.50
2023-04-23T18:18:50.589Z,14.20
2023-04-23T18:21:18.406Z,14.00
2023-04-23T18:23:46.095Z,14.00
2023-04-23T18:26:13.201Z,13.90
2023-04-23T18:28:42.903Z,13.70
2023-04-23T18:31:10.089Z,13.50
2023-04-23T18:33:51.978Z,13.30
2023-04-23T18:36:31.629Z,13.20
2023-04-23T18:38:58.963Z,13.10
2023-04-23T18:41:28.083Z,13.30
2023-04-23T18:43:56.270Z,13.40
2023-04-23T18:46:23.534Z,13.60
2023-04-23T18:49:29.849Z,13.60
2023-04-23T18:51:57.076Z,13.40
2023-04-23T18:54:25.886Z,13.10
2023-04-23T18:56:53.900Z,12.80
2023-04-23T18:59:22.018Z,12.30
2023-04-23T19:01:49.738Z,12.40
2023-04-23T19:04:16.739Z,12.60
2023-04-23T19:06:43.775Z,12.30
2023-04-23T19:09:10.842Z,12.30
2023-04-23T19:11:38.618Z,12.00
2023-04-23T19:14:05.372Z,11.90
2023-04-23T19:16:32.484Z,11.80
2023-04-23T19:18:59.423Z,11.80
2023-04-23T19:21:26.193Z,11.80
2023-04-23T19:23:54.109Z,11.90
2023-04-23T19:26:21.227Z,11.90
2023-04-23T19:28:48.385Z,12.00
2023-04-23T19:31:15.730Z,12.00
2023-04-23T19:33:45.345Z,11.90
2023-04-23T19:36:12.430Z,11.70
2023-04-23T19:38:39.247Z,11.40
2023-04-23T19:41:07.664Z,11.20
2023-04-23T19:43:34.663Z,11.00
2023-04-23T19:46:02.299Z,11.10
2023-04-23T19:48:29.147Z,11.40
2023-04-23T19:50:55.884Z,11.40
2023-04-23T19:53:22.626Z,11.50
2023-04-23T19:55:49.309Z,11.50
2023-04-23T19:58:18.541Z,11.60
2023-04-23T20:00:45.850Z,11.60
2023-04-23T20:03:12.868Z,11.40
2023-04-23T20:05:42.081Z,11.10
2023-04-23T20:08:15.102Z,11.30
2023-04-23T20:10:43.066Z,11.20
2023-04-23T20:13:09.786Z,11.10
2023-04-23T20:15:36.745Z,11.20
2023-04-23T20:18:03.801Z,11.40
2023-04-23T20:20:30.651Z,11.60
2023-04-23T20:22:57.364Z,11.70
2023-04-23T20:25:25.777Z,11.50
2023-04-23T20:27:55.569Z,11.90
2023-04-23T20:30:22.316Z,12.20
2023-04-23T20:32:49.206Z,12.20
2023-04-23T20:35:16.246Z,12.20
2023-04-23T20:37:43.226Z,12.00
2023-04-23T20:40:10.739Z,11.90
2023-04-23T20:42:39.203Z,11.80
2023-04-23T20:45:08.016Z,11.70
2023-04-23T20:47:35.144Z,11.70
2023-04-23T20:50:01.974Z,11.60
2023-04-23T20:52:29.093Z,11.40
2023-04-23T20:54:56.235Z,11.40
2023-04-23T20:57:22.965Z,11.50
2023-04-23T20:59:49.704Z,11.50
2023-04-23T21:02:16.508Z,11.50
2023-04-23T21:04:43.810Z,11.50
2023-04-23T21:07:10.598Z,11.50
2023-04-23T21:09:38.161Z,11.60
2023-04-23T21:12:05.364Z,11.70
2023-04-23T21:14:32.957Z,11.70
2023-04-23T21:16:59.880Z,11.70
2023-04-23T21:19:26.597Z,11.60
2023-04-23T21:21:53.641Z,11.60
2023-04-23T21:24:20.694Z,11.60
2023-04-23T21:26:47.468Z,11.60
2023-04-23T21:29:14.199Z,11.70
2023-04-23T21:31:47.111Z,11.80
2023-04-23T21:34:14.609Z,11.70
2023-04-23T21:36:41.626Z,11.80
2023-04-23T21:39:09.011Z,11.80
2023-04-23T21:41:36.371Z,11.90
2023-04-23T21:44:03.222Z,11.90
2023-04-23T21:46:31.996Z,11.90
2023-04-23T21:48:59.190Z,11.90
2023-04-23T21:51:26.118Z,11.90
2023-04-23T21:53:53.569Z,11.70
2023-04-23T21:56:21.462Z,11.70
2023-04-23T21:58:48.501Z,11.70
2023-04-23T22:01:15.381Z,11.80
2023-04-23T22:03:46.397Z,11.80
2023-04-23T22:06:15.623Z,11.50
2023-04-23T22:08:44.569Z,11.30
2023-04-23T22:11:11.851Z,11.20
2023-04-23T22:13:38.688Z,11.30
2023-04-23T22:16:10.826Z,11.30
2023-04-23T22:18:44.579Z,11.30
2023-04-23T22:21:11.318Z,11.30
2023-04-23T22:23:38.044Z,11.40
2023-04-23T22:26:04.778Z,11.50
2023-04-23T22:28:32.559Z,11.60
2023-04-23T22:30:59.288Z,11.50
2023-04-23T22:33:28.222Z,11.40
2023-04-23T22:35:54.960Z,11.30
2023-04-23T22:38:21.782Z,11.30
2023-04-23T22:40:48.509Z,11.20
2023-04-23T22:43:15.225Z,11.20
2023-04-23T22:45:42.083Z,11.10
2023-04-23T22:48:08.926Z,11.10
2023-04-23T22:50:35.881Z,10.90
2023-04-23T22:53:02.621Z,10.80
2023-04-23T22:55:29.381Z,10.80
2023-04-23T22:57:56.099Z,10.90
2023-04-23T23:00:22.974Z,10.90
2023-04-23T23:02:49.741Z,11.00
2023-04-23T23:05:16.563Z,11.00
2023-04-23T23:07:43.271Z,11.10
2023-04-23T23:10:10.705Z,11.10
2023-04-23T23:12:39.194Z,11.10
2023-04-23T23:15:07.620Z,11.20
2023-04-23T23:17:34.687Z,11.20
2023-04-23T23:20:01.696Z,11.10
2023-04-23T23:22:29.243Z,11.10
2023-04-23T23:24:55.998Z,11.20
2023-04-23T23:27:22.723Z,11.20
2023-04-23T23:29:50.071Z,11.20
2023-04-23T23:32:16.928Z,11.30
2023-04-23T23:34:43.719Z,11.20
2023-04-23T23:37:11.292Z,11.30
2023-04-23T23:39:38.048Z,11.30
2023-04-23T23:42:04.820Z,11.30
2023-04-23T23:44:31.567Z,11.10
2023-04-23T23:46:58.322Z,11.00
2023-04-23T23:49:25.332Z,10.90
2023-04-23T23:51:52.076Z,10.90
2023-04-23T23:54:18.821Z,10.90
2023-04-23T23:56:45.616Z,10.90
2023-04-23T23:59:12.332Z,10.80
